createdAt,value
2023-04-17T00:01:22.184Z,57.50
2023-04-17T00:03:52.594Z,50.00
2023-04-17T00:06:21.194Z,62.00
2023-04-17T00:08:49.398Z,54.00
2023-04-17T00:11:18.876Z,47.10
2023-04-17T00:13:47.287Z,43.80
2023-04-17T00:16:15.574Z,53.60
2023-04-17T00:18:45.247Z,55.20
2023-04-17T00:21:13.473Z,52.30
2023-04-17T00:23:41.716Z,59.80
2023-04-17T00:26:09.920Z,59.70
2023-04-17T00:28:38.062Z,53.60
2023-04-17T00:31:06.425Z,59.90
2023-04-17T00:33:34.641Z,65.00
2023-04-17T00:36:04.207Z,76.50
2023-04-17T00:38:32.449Z,70.00
2023-04-17T00:41:00.821Z,57.40
2023-04-17T00:43:28.997Z,66.40
2023-04-17T00:45:57.288Z,60.50
2023-04-17T00:48:26.067Z,69.60
2023-04-17T00:50:55.345Z,72.30
2023-04-17T00:53:25.093Z,59.10
2023-04-17T00:55:53.733Z,57.30
2023-04-17T00:58:22.285Z,66.50
2023-04-17T01:00:50.820Z,75.60
2023-04-17T01:03:19.199Z,83.20
2023-04-17T01:05:51.141Z,82.20
2023-04-17T01:08:19.894Z,83.20
2023-04-17T01:10:49.511Z,75.00
2023-04-17T01:13:17.719Z,74.00
2023-04-17T01:15:47.082Z,79.70
2023-04-17T01:18:16.608Z,83.80
2023-04-17T01:20:44.769Z,85.20
2023-04-17T01:23:13.093Z,86.60
2023-04-17T01:25:42.756Z,90.30
2023-04-17T01:28:10.951Z,86.10
2023-04-17T01:30:39.187Z,90.00
2023-04-17T01:33:07.444Z,91.40
2023-04-17T01:35:35.676Z,91.50
2023-04-17T01:38:03.908Z,91.60
2023-04-17T01:40:32.111Z,91.10
2023-04-17T01:43:01.868Z,92.50
2023-04-17T01:45:30.057Z,94.40
2023-04-17T01:47:58.450Z,91.90
2023-04-17T01:50:27.649Z,81.30
2023-04-17T01:52:55.853Z,90.20
2023-04-17T01:55:24.146Z,90.20
2023-04-17T01:57:53.388Z,80.80
2023-04-17T02:00:23.734Z,74.80
2023-04-17T02:02:52.040Z,73.70
2023-04-17T02:05:20.910Z,70.90
2023-04-17T02:07:51.530Z,76.20
2023-04-17T02:10:19.796Z,84.40
2023-04-17T02:12:48.018Z,91.10
2023-04-17T02:15:16.266Z,65.50
2023-04-17T02:17:45.957Z,81.90
2023-04-17T02:20:14.473Z,83.10
2023-04-17T02:22:42.641Z,72.40
2023-04-17T02:25:10.993Z,73.40
2023-04-17T02:27:39.155Z,60.60
2023-04-17T02:30:08.874Z,64.10
2023-04-17T02:32:37.117Z,71.20
2023-04-17T02:35:07.840Z,72.20
2023-04-17T02:37:36.232Z,76.10
2023-04-17T02:40:06.893Z,74.70
2023-04-17T02:42:35.040Z,77.30
2023-04-17T02:45:04.172Z,68.30
2023-04-17T02:47:32.350Z,72.20
2023-04-17T02:50:00.615Z,75.10
2023-04-17T02:52:31.083Z,69.10
2023-04-17T02:54:59.595Z,79.30
2023-04-17T02:57:27.859Z,77.70
2023-04-17T02:59:56.047Z,82.20
2023-04-17T03:02:24.459Z,92.50
2023-04-17T03:04:53.350Z,84.70
2023-04-17T03:07:23.639Z,82.80
2023-04-17T03:09:54.080Z,84.50
2023-04-17T03:12:22.217Z,80.90
2023-04-17T03:14:50.431Z,93.80
2023-04-17T03:17:20.411Z,86.30
2023-04-17T03:19:48.692Z,89.50
2023-04-17T03:22:16.860Z,80.00
2023-04-17T03:24:45.081Z,70.20
2023-04-17T03:27:14.692Z,87.80
2023-04-17T03:29:42.890Z,80.30
2023-04-17T03:32:11.109Z,92.70
2023-04-17T03:34:39.349Z,87.40
2023-04-17T03:37:07.491Z,84.60
2023-04-17T03:39:35.698Z,83.60
2023-04-17T03:42:03.924Z,72.20
2023-04-17T03:44:33.463Z,79.30
2023-04-17T03:47:01.640Z,90.70
2023-04-17T03:49:29.800Z,90.90
2023-04-17T03:51:58.512Z,86.40
2023-04-17T03:54:27.421Z,83.30
2023-04-17T03:56:55.810Z,90.50
2023-04-17T03:59:23.996Z,83.90
2023-04-17T04:01:54.197Z,89.40
2023-04-17T04:04:22.841Z,87.70
2023-04-17T04:06:52.879Z,90.70
2023-04-17T04:09:21.361Z,81.80
2023-04-17T04:11:49.668Z,81.50
2023-04-17T04:14:18.223Z,78.60
2023-04-17T04:16:46.586Z,71.00
2023-04-17T04:19:16.376Z,80.10
2023-04-17T04:21:45.290Z,81.30
2023-04-17T04:24:14.530Z,83.20
2023-04-17T04:26:43.279Z,82.40
2023-04-17T04:29:12.163Z,75.50
2023-04-17T04:31:41.238Z,85.20
2023-04-17T04:34:10.394Z,83.90
2023-04-17T04:36:42.017Z,84.30
2023-04-17T04:39:10.853Z,78.70
2023-04-17T04:41:39.225Z,79.40
2023-04-17T04:44:07.525Z,79.00
2023-04-17T04:46:35.746Z,77.10
2023-04-17T04:49:03.907Z,74.90
2023-04-17T04:51:33.831Z,68.90
2023-04-17T04:54:03.619Z,71.00
2023-04-17T04:56:33.018Z,66.70
2023-04-17T04:59:01.375Z,67.40
2023-04-17T05:01:29.834Z,70.60
2023-04-17T05:03:58.359Z,73.60
2023-04-17T05:06:27.852Z,72.80
2023-04-17T05:08:56.024Z,80.40
2023-04-17T05:11:25.671Z,65.40
2023-04-17T05:13:53.825Z,65.50
2023-04-17T05:16:22.366Z,85.50
2023-04-17T05:18:50.597Z,81.40
2023-04-17T05:21:18.824Z,83.90
2023-04-17T05:23:47.007Z,87.70
2023-04-17T05:26:15.331Z,85.20
2023-04-17T05:28:45.822Z,87.10
2023-04-17T05:31:14.388Z,77.00
2023-04-17T05:33:42.666Z,79.70
2023-04-17T05:36:11.295Z,72.90
2023-04-17T05:38:39.447Z,78.20
2023-04-17T05:41:08.499Z,87.70
2023-04-17T05:43:36.747Z,70.50
2023-04-17T05:46:06.551Z,77.90
2023-04-17T05:48:34.779Z,85.80
2023-04-17T05:51:03.008Z,87.30
2023-04-17T05:53:31.802Z,77.30
2023-04-17T05:56:00.193Z,75.60
2023-04-17T05:58:28.354Z,78.40
2023-04-17T06:00:57.023Z,80.10
2023-04-17T06:03:27.210Z,80.50
2023-04-17T06:05:55.726Z,80.90
2023-04-17T06:08:23.918Z,78.70
2023-04-17T06:10:52.407Z,71.80
2023-04-17T06:13:20.576Z,78.60
2023-04-17T06:15:48.752Z,74.30
2023-04-17T06:18:17.638Z,79.10
2023-04-17T06:20:47.690Z,67.90
2023-04-17T06:23:15.922Z,71.40
2023-04-17T06:25:44.130Z,69.40
2023-04-17T06:28:12.252Z,66.60
2023-04-17T06:30:40.545Z,71.60
2023-04-17T06:33:08.790Z,72.30
2023-04-17T06:35:40.893Z,65.50
2023-04-17T06:38:10.560Z,80.70
2023-04-17T06:40:38.759Z,65.30
2023-04-17T06:43:06.957Z,73.90
2023-04-17T06:45:35.245Z,64.40
2023-04-17T06:48:03.514Z,70.40
2023-04-17T06:50:31.859Z,55.10
2023-04-17T06:53:00.101Z,54.50
2023-04-17T06:55:29.737Z,64.10
2023-04-17T06:57:58.065Z,55.00
2023-04-17T07:00:26.429Z,59.50
2023-04-17T07:02:54.811Z,50.70
2023-04-17T07:05:23.200Z,49.10
2023-04-17T07:07:51.423Z,39.00
2023-04-17T07:10:20.410Z,40.40
2023-04-17T07:12:50.173Z,50.00
2023-04-17T07:15:18.646Z,50.80
2023-04-17T07:17:47.177Z,51.50
2023-04-17T07:20:15.726Z,43.90
2023-04-17T07:22:44.152Z,46.30
2023-04-17T07:25:12.500Z,47.00
2023-04-17T07:27:40.812Z,44.90
2023-04-17T07:30:11.539Z,34.60
2023-04-17T07:32:39.783Z,42.20
2023-04-17T07:35:09.344Z,47.10
2023-04-17T07:37:37.722Z,41.30
2023-04-17T07:40:10.342Z,40.40
2023-04-17T07:42:38.822Z,42.40
2023-04-17T07:45:08.254Z,41.30
2023-04-17T07:47:38.187Z,41.10
2023-04-17T07:50:07.377Z,42.70
2023-04-17T07:52:35.654Z,41.00
2023-04-17T07:55:03.929Z,40.10
2023-04-17T07:57:33.016Z,48.40
2023-04-17T08:00:02.018Z,41.00
2023-04-17T08:02:30.591Z,42.90
2023-04-17T08:05:01.884Z,43.30
2023-04-17T08:07:30.233Z,29.90
2023-04-17T08:09:58.520Z,33.30
2023-04-17T08:12:26.850Z,32.00
2023-04-17T08:14:55.025Z,26.40
2023-04-17T08:17:26.193Z,38.00
2023-04-17T08:19:54.656Z,35.30
2023-04-17T08:22:24.514Z,42.00
2023-04-17T08:24:54.943Z,36.70
2023-04-17T08:27:23.153Z,39.00
2023-04-17T08:29:51.696Z,28.80
2023-04-17T08:32:19.891Z,25.60
2023-04-17T08:34:48.236Z,18.20
2023-04-17T08:37:16.391Z,26.60
2023-04-17T08:39:46.100Z,35.30
2023-04-17T08:42:18.575Z,32.40
2023-04-17T08:44:47.561Z,30.30
2023-04-17T08:47:20.132Z,34.90
2023-04-17T08:49:50.521Z,42.40
2023-04-17T08:52:19.173Z,26.40
2023-04-17T08:54:50.995Z,28.80
2023-04-17T08:57:19.595Z,35.60
2023-04-17T08:59:47.998Z,28.20
2023-04-17T09:02:16.452Z,27.80
2023-04-17T09:04:47.265Z,30.70
2023-04-17T09:07:16.718Z,29.20
2023-04-17T09:09:51.113Z,47.30
2023-04-17T09:12:19.864Z,38.70
2023-04-17T09:14:48.155Z,38.50
2023-04-17T09:17:18.355Z,35.60
2023-04-17T09:20:09.357Z,39.20
2023-04-17T09:22:39.302Z,28.20
2023-04-17T09:25:17.630Z,44.00
2023-04-17T09:27:46.142Z,40.90
2023-04-17T09:30:14.895Z,22.90
2023-04-17T09:32:43.268Z,40.80
2023-04-17T09:35:11.806Z,31.80
2023-04-17T09:37:50.673Z,32.30
2023-04-17T09:40:21.589Z,35.70
2023-04-17T09:43:00.550Z,38.30
2023-04-17T09:45:33.404Z,34.80
2023-04-17T09:48:05.477Z,35.30
2023-04-17T09:50:35.855Z,27.90
2023-04-17T09:53:07.120Z,25.20
2023-04-17T09:55:38.055Z,23.10
2023-04-17T09:58:08.568Z,21.50
2023-04-17T10:00:38.258Z,29.00
2023-04-17T10:03:08.374Z,27.90
2023-04-17T10:05:36.974Z,19.90
2023-04-17T10:08:06.047Z,19.00
2023-04-17T10:10:36.628Z,18.10
2023-04-17T10:13:08.862Z,19.00
2023-04-17T10:15:37.794Z,18.90
2023-04-17T10:18:21.212Z,12.60
2023-04-17T10:20:50.907Z,15.30
2023-04-17T10:23:33.531Z,11.70
2023-04-17T10:26:38.357Z,20.20
2023-04-17T10:29:08.831Z,21.20
2023-04-17T10:32:24.457Z,27.30
2023-04-17T10:34:54.276Z,23.00
2023-04-17T10:37:25.485Z,28.20
2023-04-17T10:40:02.493Z,27.00
2023-04-17T10:42:32.968Z,31.80
2023-04-17T10:45:05.491Z,21.20
2023-04-17T10:47:35.039Z,24.00
2023-04-17T10:50:05.326Z,27.30
2023-04-17T10:52:43.530Z,39.30
2023-04-17T10:55:16.299Z,23.90
2023-04-17T10:57:59.298Z,20.40
2023-04-17T11:00:38.512Z,27.50
2023-04-17T11:03:08.077Z,20.40
2023-04-17T11:05:36.781Z,25.00
2023-04-17T11:08:04.991Z,25.20
2023-04-17T11:10:37.276Z,27.80
2023-04-17T11:13:05.716Z,30.40
2023-04-17T11:15:36.445Z,28.80
2023-04-17T11:18:05.341Z,23.80
2023-04-17T11:20:34.739Z,32.10
2023-04-17T11:23:03.679Z,37.60
2023-04-17T11:25:34.107Z,35.50
2023-04-17T11:28:04.396Z,34.90
2023-04-17T11:30:34.635Z,31.90
2023-04-17T11:33:05.535Z,32.30
2023-04-17T11:35:35.053Z,29.50
2023-04-17T11:38:20.921Z,24.30
2023-04-17T11:40:52.453Z,31.10
2023-04-17T11:43:21.603Z,35.90
2023-04-17T11:45:52.242Z,27.40
2023-04-17T11:48:24.671Z,31.40
2023-04-17T11:50:56.967Z,24.00
2023-04-17T11:53:25.832Z,25.30
2023-04-17T11:56:12.228Z,26.60
2023-04-17T11:58:48.120Z,32.40
2023-04-17T12:01:16.355Z,35.00
2023-04-17T12:03:47.806Z,32.30
2023-04-17T12:06:17.343Z,33.90
2023-04-17T12:08:50.150Z,26.30
2023-04-17T12:11:25.119Z,33.20
2023-04-17T12:13:53.992Z,24.60
2023-04-17T12:16:24.661Z,27.40
2023-04-17T12:18:54.891Z,32.00
2023-04-17T12:21:23.991Z,27.40
2023-04-17T12:23:52.720Z,23.80
2023-04-17T12:26:20.927Z,28.50
2023-04-17T12:28:49.123Z,27.50
2023-04-17T12:31:17.356Z,28.00
2023-04-17T12:33:45.749Z,31.70
2023-04-17T12:36:15.474Z,36.60
2023-04-17T12:38:44.088Z,44.90
2023-04-17T12:41:12.290Z,29.50
2023-04-17T12:43:40.556Z,34.10
2023-04-17T12:46:11.022Z,39.50
2023-04-17T12:48:39.330Z,42.00
2023-04-17T12:51:07.626Z,39.20
2023-04-17T12:53:37.377Z,39.70
2023-04-17T12:56:06.109Z,35.20
2023-04-17T12:58:34.311Z,29.30
2023-04-17T13:01:02.523Z,30.00
2023-04-17T13:03:30.856Z,30.20
2023-04-17T13:05:59.355Z,35.80
2023-04-17T13:08:27.615Z,35.40
2023-04-17T13:10:57.558Z,37.50
2023-04-17T13:13:26.200Z,38.80
2023-04-17T13:15:54.437Z,33.30
2023-04-17T13:18:22.641Z,41.10
2023-04-17T13:20:50.999Z,38.70
2023-04-17T13:23:20.634Z,34.10
2023-04-17T13:25:49.396Z,34.60
2023-04-17T13:28:19.032Z,40.50
2023-04-17T13:30:47.299Z,25.20
2023-04-17T13:33:15.666Z,32.60
2023-04-17T13:35:44.009Z,30.70
2023-04-17T13:38:12.255Z,34.60
2023-04-17T13:40:41.075Z,24.70
2023-04-17T13:43:09.890Z,25.00
2023-04-17T13:45:39.564Z,23.70
2023-04-17T13:48:08.089Z,22.20
2023-04-17T13:50:36.386Z,28.80
2023-04-17T13:53:04.746Z,30.80
2023-04-17T13:55:33.229Z,26.90
2023-04-17T13:58:02.176Z,35.00
2023-04-17T14:00:30.504Z,22.20
2023-04-17T14:03:00.813Z,26.90
2023-04-17T14:05:29.295Z,23.90
2023-04-17T14:07:57.947Z,20.30
2023-04-17T14:10:26.343Z,26.90
2023-04-17T14:12:54.749Z,20.90
2023-04-17T14:15:23.006Z,20.90
2023-04-17T14:17:51.333Z,21.20
2023-04-17T14:20:21.219Z,24.70
2023-04-17T14:22:49.573Z,28.10
2023-04-17T14:25:18.732Z,29.50
2023-04-17T14:27:46.978Z,29.20
2023-04-17T14:30:15.701Z,20.20
2023-04-17T14:32:43.977Z,22.30
2023-04-17T14:35:13.260Z,17.20
2023-04-17T14:37:43.157Z,20.70
2023-04-17T14:40:12.468Z,14.10
2023-04-17T14:42:53.681Z,15.90
2023-04-17T14:45:23.096Z,30.00
2023-04-17T14:47:51.538Z,25.50
2023-04-17T14:50:20.065Z,25.00
2023-04-17T14:52:49.810Z,23.70
2023-04-17T14:55:18.182Z,27.10
2023-04-17T14:57:46.435Z,21.70
2023-04-17T15:00:15.965Z,29.90
2023-04-17T15:02:44.298Z,31.50
2023-04-17T15:05:12.725Z,29.70
2023-04-17T15:07:40.953Z,24.30
2023-04-17T15:10:11.744Z,37.00
2023-04-17T15:12:40.282Z,29.50
2023-04-17T15:15:10.005Z,30.50
2023-04-17T15:17:38.323Z,36.10
2023-04-17T15:20:07.864Z,24.40
2023-04-17T15:22:36.077Z,30.20
2023-04-17T15:25:04.675Z,29.30
2023-04-17T15:27:34.282Z,28.50
2023-04-17T15:30:04.930Z,32.20
2023-04-17T15:32:33.086Z,29.20
2023-04-17T15:35:01.261Z,26.90
2023-04-17T15:37:29.550Z,30.50
2023-04-17T15:39:57.775Z,36.50
2023-04-17T15:42:27.186Z,37.20
2023-04-17T15:44:57.591Z,32.90
2023-04-17T15:47:25.768Z,47.20
2023-04-17T15:49:54.008Z,41.60
2023-04-17T15:52:22.180Z,42.10
2023-04-17T15:54:50.319Z,42.20
2023-04-17T15:57:18.852Z,44.00
2023-04-17T15:59:47.089Z,51.30
2023-04-17T16:02:16.802Z,43.20
2023-04-17T16:04:45.222Z,43.80
2023-04-17T16:07:14.245Z,37.90
2023-04-17T16:09:46.655Z,48.10
2023-04-17T16:12:15.002Z,43.60
2023-04-17T16:14:43.271Z,43.40
2023-04-17T16:17:11.426Z,38.10
2023-04-17T16:19:41.004Z,29.60
2023-04-17T16:22:09.171Z,39.60
2023-04-17T16:24:37.315Z,33.20
2023-04-17T16:27:07.293Z,40.00
2023-04-17T16:29:35.472Z,40.50
2023-04-17T16:32:03.691Z,32.30
2023-04-17T16:34:31.888Z,35.40
2023-04-17T16:37:03.368Z,33.00
2023-04-17T16:39:31.531Z,39.30
2023-04-17T16:41:59.696Z,35.30
2023-04-17T16:44:29.198Z,41.00
2023-04-17T16:49:28.792Z,34.30
2023-04-17T16:51:56.968Z,42.90
2023-04-17T16:54:26.534Z,43.20
2023-04-17T16:56:54.707Z,39.50
2023-04-17T16:59:24.059Z,43.60
2023-04-17T17:01:52.747Z,45.10
2023-04-17T17:04:21.002Z,34.90
2023-04-17T17:06:49.214Z,40.80
2023-04-17T17:09:17.409Z,41.30
2023-04-17T17:11:47.875Z,42.50
2023-04-17T17:14:16.333Z,38.60
2023-04-17T17:16:44.553Z,41.60
2023-04-17T17:19:13.057Z,36.70
2023-04-17T17:21:41.473Z,41.40
2023-04-17T17:24:09.773Z,38.20
2023-04-17T17:26:37.923Z,45.40
2023-04-17T17:29:07.538Z,30.80
2023-04-17T17:31:35.750Z,40.70
2023-04-17T17:34:16.654Z,36.60
2023-04-17T17:36:52.067Z,31.50
2023-04-17T17:39:21.828Z,41.70
2023-04-17T17:41:51.175Z,44.60
2023-04-17T17:44:20.731Z,41.90
2023-04-17T17:46:48.893Z,44.10
2023-04-17T17:49:17.428Z,45.60
2023-04-17T17:51:45.619Z,36.90
2023-04-17T17:54:14.066Z,25.10
2023-04-17T17:56:42.455Z,36.70
2023-04-17T17:59:10.614Z,39.50
2023-04-17T18:01:40.325Z,42.50
2023-04-17T18:04:09.020Z,45.70
2023-04-17T18:06:37.322Z,49.40
2023-04-17T18:09:05.582Z,45.80
2023-04-17T18:11:33.768Z,48.20
2023-04-17T18:14:01.947Z,44.10
2023-04-17T18:16:31.604Z,44.70
2023-04-17T18:19:03.568Z,47.40
2023-04-17T18:21:31.983Z,40.30
2023-04-17T18:24:00.243Z,31.50
2023-04-17T18:26:28.617Z,28.60
2023-04-17T18:28:56.836Z,30.60
2023-04-17T18:31:26.072Z,27.20
2023-04-17T18:33:54.315Z,37.50
2023-04-17T18:36:24.119Z,36.20
2023-04-17T18:38:52.387Z,31.50
2023-04-17T18:41:21.452Z,41.20
2023-04-17T18:43:49.908Z,35.40
2023-04-17T18:46:18.264Z,39.30
2023-04-17T18:48:46.554Z,40.60
2023-04-17T18:51:15.717Z,41.00
2023-04-17T18:53:45.333Z,34.90
2023-04-17T18:56:15.003Z,33.30
2023-04-17T18:58:43.606Z,45.20
2023-04-17T19:01:11.944Z,35.90
2023-04-17T19:03:40.600Z,36.40
2023-04-17T19:06:08.772Z,39.00
2023-04-17T19:08:39.471Z,32.70
2023-04-17T19:11:09.353Z,38.00
2023-04-17T19:13:37.498Z,36.60
2023-04-17T19:16:05.787Z,42.00
2023-04-17T19:18:34.013Z,33.80
2023-04-17T19:21:02.373Z,36.80
2023-04-17T19:23:30.687Z,49.10
2023-04-17T19:25:58.868Z,47.50
2023-04-17T19:28:28.668Z,44.10
2023-04-17T19:30:57.901Z,48.90
2023-04-17T19:33:26.116Z,43.40
2023-04-17T19:35:54.278Z,40.80
2023-04-17T19:38:22.511Z,37.00
2023-04-17T19:41:14.520Z,34.80
2023-04-17T19:43:44.305Z,45.70
2023-04-17T19:46:13.395Z,47.30
2023-04-17T19:48:43.589Z,39.00
2023-04-17T19:51:12.728Z,47.20
2023-04-17T19:53:42.515Z,39.30
2023-04-17T19:56:11.308Z,42.20
2023-04-17T19:58:39.861Z,36.00
2023-04-17T20:01:09.518Z,41.30
2023-04-17T20:03:39.464Z,37.10
2023-04-17T20:06:08.333Z,35.40
2023-04-17T20:08:36.676Z,33.60
2023-04-17T20:11:06.405Z,26.00
2023-04-17T20:13:34.678Z,39.60
2023-04-17T20:16:02.828Z,37.00
2023-04-17T20:18:33.898Z,38.40
2023-04-17T20:21:02.333Z,44.00
2023-04-17T20:23:30.729Z,36.20
2023-04-17T20:25:59.226Z,36.70
2023-04-17T20:28:28.882Z,37.40
2023-04-17T20:30:57.281Z,24.50
2023-04-17T20:33:25.554Z,45.40
2023-04-17T20:35:55.131Z,37.10
2023-04-17T20:38:23.310Z,38.00
2023-04-17T20:40:51.496Z,40.00
2023-04-17T20:43:19.691Z,35.10
2023-04-17T20:45:48.434Z,38.10
2023-04-17T20:48:16.811Z,43.20
2023-04-17T20:50:45.082Z,44.60
2023-04-17T20:53:15.858Z,38.20
2023-04-17T20:55:44.051Z,39.70
2023-04-17T20:58:12.226Z,42.70
2023-04-17T21:00:53.957Z,33.80
2023-04-17T21:03:27.680Z,38.00
2023-04-17T21:05:55.925Z,42.90
2023-04-17T21:08:26.224Z,37.40
2023-04-17T21:10:54.407Z,44.00
2023-04-17T21:13:23.405Z,43.90
2023-04-17T21:15:51.616Z,46.00
2023-04-17T21:18:19.865Z,43.10
2023-04-17T21:20:48.021Z,43.30
2023-04-17T21:23:16.177Z,44.30
2023-04-17T21:25:45.707Z,40.00
2023-04-17T21:28:13.914Z,47.40
2023-04-17T21:30:42.079Z,44.50
2023-04-17T21:33:10.322Z,39.10
2023-04-17T21:35:39.472Z,48.20
2023-04-17T21:38:07.700Z,44.40
2023-04-17T21:40:37.121Z,39.40
2023-04-17T21:43:06.871Z,44.50
2023-04-17T21:45:35.081Z,36.10
2023-04-17T21:48:03.411Z,38.90
2023-04-17T21:50:31.882Z,35.10
2023-04-17T21:53:00.112Z,36.60
2023-04-17T21:55:28.514Z,39.00
2023-04-17T21:57:56.680Z,36.90
2023-04-17T22:00:26.400Z,43.80
2023-04-17T22:02:54.728Z,33.00
2023-04-17T22:05:22.978Z,44.10
2023-04-17T22:07:54.837Z,42.90
2023-04-17T22:10:24.405Z,43.60
2023-04-17T22:12:52.832Z,46.30
2023-04-17T22:15:21.020Z,44.00
2023-04-17T22:17:50.738Z,40.60
2023-04-17T22:20:19.067Z,43.40
2023-04-17T22:22:47.937Z,40.30
2023-04-17T22:25:16.108Z,43.40
2023-04-17T22:27:44.268Z,53.00
2023-04-17T22:30:12.895Z,37.20
2023-04-17T22:32:41.302Z,35.30
2023-04-17T22:35:11.280Z,31.00
2023-04-17T22:37:39.436Z,33.00
2023-04-17T22:40:09.027Z,39.20
2023-04-17T22:42:37.212Z,30.60
2023-04-17T22:45:06.233Z,31.20
2023-04-17T22:47:34.569Z,31.30
2023-04-17T22:50:04.101Z,31.80
2023-04-17T22:52:33.636Z,29.10
2023-04-17T22:55:01.837Z,28.20
2023-04-17T22:57:29.986Z,32.70
2023-04-17T22:59:58.138Z,30.40
2023-04-17T23:02:26.432Z,31.50
2023-04-17T23:04:54.723Z,37.70
2023-04-17T23:07:22.959Z,29.90
2023-04-17T23:09:52.565Z,30.10
2023-04-17T23:12:21.734Z,32.80
2023-04-17T23:14:49.983Z,37.80
2023-04-17T23:17:18.227Z,39.00
2023-04-17T23:19:46.713Z,42.90
2023-04-17T23:22:14.967Z,52.20
2023-04-17T23:24:43.162Z,50.70
2023-04-17T23:27:12.722Z,48.30
2023-04-17T23:29:40.900Z,54.70
2023-04-17T23:32:09.087Z,47.70
2023-04-17T23:34:37.644Z,55.00
2023-04-17T23:37:06.010Z,43.10
2023-04-17T23:39:34.195Z,45.90
2023-04-17T23:42:06.977Z,39.90
2023-04-17T23:44:36.683Z,35.90
2023-04-17T23:47:05.361Z,45.60
2023-04-17T23:49:34.186Z,54.00
2023-04-17T23:52:02.534Z,54.70
2023-04-17T23:54:30.726Z,51.90
2023-04-17T23:56:59.181Z,63.60
2023-04-17T23:59:27.336Z,49.00
